Time;durP1;ratioP1;P1;durP2;ratioP2;P2;SDS_P1;SDS_P2;PMS_P1;PMS_P2;Temp;Humidity;BMP_temperature;BMP_pressure;BME280_temperature;BME280_humidity;BME280_pressure;Samples;Min_cycle;Max_cycle;Signal;HPM_P1;HPM_P2
2022/01/18 00:00:10;;;;;;;9.10;4.10;;;21.00;50.90;;;;;;4973452;28;20104;-70
2022/01/18 00:02:38;;;;;;;9.80;4.07;;;20.90;50.80;;;;;;4973529;28;20090;-69
2022/01/18 00:05:05;;;;;;;10.82;4.22;;;20.90;50.90;;;;;;4973664;28;20590;-69
2022/01/18 00:07:31;;;;;;;9.77;3.80;;;20.90;51.20;;;;;;4973476;28;20476;-70
2022/01/18 00:09:57;;;;;;;8.65;3.80;;;20.90;50.90;;;;;;4972078;28;20023;-70
2022/01/18 00:15:31;;;;;;;10.85;4.05;;;20.90;50.90;;;;;;4973424;28;20027;-70
2022/01/18 00:20:52;;;;;;;10.50;4.13;;;20.90;50.90;;;;;;4973048;28;20126;-70
2022/01/18 00:23:19;;;;;;;10.27;4.10;;;20.90;51.00;;;;;;4973306;28;20031;-70
2022/01/18 00:25:49;;;;;;;10.43;4.03;;;20.90;51.00;;;;;;4973271;28;20470;-70
2022/01/18 00:28:16;;;;;;;10.15;3.78;;;20.90;50.90;;;;;;4972970;28;20133;-70
2022/01/18 00:31:09;;;;;;;11.02;4.32;;;20.90;51.00;;;;;;4972904;28;20114;-70
2022/01/18 00:33:51;;;;;;;10.43;4.07;;;20.90;51.00;;;;;;4972220;28;20118;-70
2022/01/18 00:38:54;;;;;;;9.48;3.83;;;20.90;50.90;;;;;;4973124;28;20023;-69
2022/01/18 00:41:23;;;;;;;11.48;4.43;;;20.90;51.00;;;;;;4972669;28;20483;-70
2022/01/18 00:43:50;;;;;;;9.82;3.92;;;20.90;51.00;;;;;;4971712;28;20027;-69
2022/01/18 00:46:16;;;;;;;10.63;4.07;;;20.80;51.00;;;;;;4977535;28;20062;-70
2022/01/18 00:48:42;;;;;;;8.90;3.80;;;20.80;50.90;;;;;;4971751;28;20061;-70
2022/01/18 00:51:12;;;;;;;6.75;3.25;;;20.90;51.00;;;;;;4972643;28;20085;-69
2022/01/18 00:53:39;;;;;;;9.68;4.03;;;20.90;51.00;;;;;;4973030;28;20077;-69
2022/01/18 00:58:39;;;;;;;9.00;3.30;;;20.90;51.00;;;;;;4972830;28;20023;-69
2022/01/18 01:01:05;;;;;;;9.13;3.97;;;20.90;51.00;;;;;;4972479;28;20042;-69
2022/01/18 01:03:31;;;;;;;12.70;3.78;;;20.90;50.90;;;;;;4971596;28;20031;-69
2022/01/18 01:05:57;;;;;;;9.32;3.67;;;20.90;51.00;;;;;;4971795;28;20442;-69
2022/01/18 01:08:22;;;;;;;9.30;3.80;;;20.90;50.90;;;;;;4972760;28;20050;-69
2022/01/18 01:10:48;;;;;;;9.07;3.83;;;20.90;51.00;;;;;;4972481;28;20070;-69
2022/01/18 01:13:16;;;;;;;10.65;3.75;;;20.90;51.00;;;;;;4972761;28;20117;-69
2022/01/18 01:16:08;;;;;;;9.30;3.63;;;20.90;50.90;;;;;;4972943;28;20069;-69
2022/01/18 01:35:34;;;;;;;8.65;3.72;;;20.80;50.90;;;;;;4936650;29;20031;-67
2022/01/18 01:43:36;;;;;;;9.35;3.75;;;20.80;50.90;;;;;;4918849;29;20028;-66
2022/01/18 01:46:03;;;;;;;11.32;3.90;;;20.80;51.00;;;;;;4918812;29;20111;-66
2022/01/18 01:48:31;;;;;;;9.35;3.92;;;20.80;50.90;;;;;;4918894;29;20042;-66
2022/01/18 01:51:05;;;;;;;10.45;4.07;;;20.80;50.90;;;;;;4918216;29;20475;-66
2022/01/18 01:53:33;;;;;;;10.75;3.75;;;20.80;50.90;;;;;;4918640;29;20079;-66
2022/01/18 01:55:59;;;;;;;9.02;3.55;;;20.80;51.00;;;;;;4918372;29;20028;-67
2022/01/18 01:58:26;;;;;;;12.15;3.90;;;20.80;51.40;;;;;;4917289;29;20028;-66
2022/01/18 02:01:02;;;;;;;11.13;3.90;;;20.80;50.80;;;;;;4932767;29;20493;-66
2022/01/18 02:03:27;;;;;;;9.45;3.40;;;20.80;50.90;;;;;;4918397;29;20067;-66
2022/01/18 02:05:53;;;;;;;8.13;3.53;;;20.80;50.80;;;;;;4918401;29;20051;-66
2022/01/18 02:08:20;;;;;;;9.35;3.53;;;20.80;50.80;;;;;;4918285;29;20032;-67
2022/01/18 02:10:45;;;;;;;11.15;3.50;;;20.80;50.90;;;;;;4916566;29;20035;-67
2022/01/18 02:13:12;;;;;;;8.70;3.75;;;20.80;50.90;;;;;;4932824;29;20040;-67
2022/01/18 02:15:47;;;;;;;10.00;3.40;;;20.80;50.80;;;;;;4918070;29;20389;-67
2022/01/18 02:23:41;;;;;;;8.43;3.42;;;20.80;50.80;;;;;;4918055;29;20119;-67
2022/01/18 02:26:07;;;;;;;9.48;3.78;;;20.80;50.70;;;;;;4918070;29;20502;-67
2022/01/18 02:28:33;;;;;;;9.02;3.65;;;20.80;50.80;;;;;;4916592;29;20047;-67
2022/01/18 02:30:58;;;;;;;8.52;3.42;;;20.80;50.70;;;;;;4916344;29;20397;-67
2022/01/18 02:33:24;;;;;;;9.38;3.78;;;20.80;50.80;;;;;;4917872;29;20053;-67
2022/01/18 02:35:51;;;;;;;9.38;3.35;;;20.80;50.70;;;;;;4917831;29;20040;-66
2022/01/18 02:38:17;;;;;;;7.60;3.20;;;20.80;50.80;;;;;;4916498;29;20032;-66
2022/01/18 02:40:43;;;;;;;8.73;3.58;;;20.80;50.80;;;;;;4916346;29;20362;-66
2022/01/18 02:45:57;;;;;;;8.73;3.85;;;20.80;50.80;;;;;;4917865;29;20490;-66
2022/01/18 02:48:23;;;;;;;8.48;3.15;;;20.80;50.80;;;;;;4916366;29;20063;-66
2022/01/18 02:50:50;;;;;;;8.45;3.60;;;20.80;50.70;;;;;;4917134;29;20036;-66
2022/01/18 02:53:19;;;;;;;10.05;3.50;;;20.80;50.60;;;;;;4916492;29;20131;-67
2022/01/18 02:55:51;;;;;;;10.83;3.97;;;20.80;50.70;;;;;;4917581;29;20039;-67
2022/01/18 02:58:24;;;;;;;8.82;3.33;;;20.80;50.60;;;;;;4916099;29;20035;-66
2022/01/18 03:03:37;;;;;;;9.27;3.42;;;20.80;50.70;;;;;;4917433;29;20284;-66
2022/01/18 03:06:06;;;;;;;7.93;3.40;;;20.80;50.70;;;;;;4917351;29;20032;-67
2022/01/18 03:08:34;;;;;;;9.80;3.80;;;20.80;50.80;;;;;;4917168;29;20493;-67
2022/01/18 03:11:01;;;;;;;8.52;3.10;;;20.80;50.70;;;;;;4915589;29;20035;-66
2022/01/18 03:13:27;;;;;;;6.95;3.25;;;20.70;50.80;;;;;;4916175;29;20059;-67
2022/01/18 03:15:53;;;;;;;7.57;3.13;;;20.80;50.60;;;;;;4917216;29;20056;-67
2022/01/18 03:18:19;;;;;;;7.88;3.45;;;20.80;50.70;;;;;;4916027;29;20031;-66
2022/01/18 03:20:45;;;;;;;8.82;3.08;;;20.80;50.70;;;;;;4916756;29;20508;-66
2022/01/18 03:23:18;;;;;;;9.82;3.03;;;20.80;50.60;;;;;;4915698;29;20032;-66
2022/01/18 03:25:59;;;;;;;11.02;3.78;;;20.80;50.80;;;;;;4916945;29;20035;-66
2022/01/18 03:28:27;;;;;;;9.52;3.33;;;20.80;50.80;;;;;;4916729;29;20040;-66
2022/01/18 03:30:54;;;;;;;9.45;3.22;;;20.80;50.70;;;;;;4884251;29;20028;-67
2022/01/18 03:33:22;;;;;;;10.77;3.30;;;20.80;50.90;;;;;;4915613;29;20474;-67
2022/01/18 03:35:49;;;;;;;7.68;3.15;;;20.80;50.80;;;;;;4916808;29;20054;-67
2022/01/18 03:38:17;;;;;;;9.00;3.38;;;20.80;50.60;;;;;;4915639;29;20392;-67
2022/01/18 03:40:43;;;;;;;9.85;3.30;;;20.80;50.80;;;;;;4899763;29;20083;-67
2022/01/18 03:43:12;;;;;;;8.32;3.35;;;20.80;50.70;;;;;;4916676;29;20075;-64
2022/01/18 03:45:43;;;;;;;7.72;3.28;;;20.80;50.50;;;;;;4915325;29;20171;-64
2022/01/18 03:48:25;;;;;;;8.18;3.30;;;20.80;50.80;;;;;;4916744;29;20039;-65
2022/01/18 03:50:51;;;;;;;7.85;3.10;;;20.80;50.80;;;;;;4915872;29;20032;-64
2022/01/18 03:53:19;;;;;;;9.25;3.20;;;20.80;50.70;;;;;;4915277;29;20028;-65
2022/01/18 03:55:48;;;;;;;7.90;2.95;;;20.80;50.60;;;;;;4916406;29;20028;-65
2022/01/18 03:58:16;;;;;;;9.23;3.25;;;20.80;50.80;;;;;;4917098;29;20378;-66
2022/01/18 04:00:46;;;;;;;7.85;3.03;;;20.80;50.60;;;;;;4916081;29;20028;-67
2022/01/18 04:03:14;;;;;;;9.05;3.28;;;20.80;50.60;;;;;;4916253;29;20024;-66
2022/01/18 04:05:40;;;;;;;10.10;3.40;;;20.80;50.70;;;;;;4916246;29;20095;-66
2022/01/18 04:08:06;;;;;;;8.70;3.17;;;20.80;50.70;;;;;;4916020;29;20032;-66
2022/01/18 04:10:32;;;;;;;8.55;3.15;;;20.80;50.60;;;;;;4915744;29;20047;-66
2022/01/18 04:12:59;;;;;;;9.27;3.70;;;20.80;50.60;;;;;;4916173;29;20028;-66
2022/01/18 04:15:25;;;;;;;8.88;3.45;;;20.70;50.60;;;;;;4914801;29;20028;-66
2022/01/18 04:26:01;;;;;;;8.35;3.10;;;20.80;50.70;;;;;;4914709;29;20371;-66
2022/01/18 04:28:43;;;;;;;8.30;3.28;;;20.80;50.50;;;;;;4914533;29;20032;-66
2022/01/18 04:31:10;;;;;;;8.65;3.53;;;20.70;50.60;;;;;;4914267;29;20036;-66
2022/01/18 04:33:38;;;;;;;9.02;3.22;;;20.70;50.60;;;;;;4915805;29;20039;-66
2022/01/18 04:36:08;;;;;;;8.40;3.28;;;20.80;50.60;;;;;;4915658;29;20176;-66
2022/01/18 04:38:34;;;;;;;8.13;3.28;;;20.70;50.70;;;;;;4915563;29;20055;-66
2022/01/18 04:41:06;;;;;;;10.27;3.50;;;20.70;50.60;;;;;;4914251;29;20111;-66
2022/01/18 04:44:08;;;;;;;7.70;3.10;;;20.80;50.70;;;;;;4914632;29;20481;-66
2022/01/18 04:49:18;;;;;;;9.43;3.40;;;20.70;50.60;;;;;;4915532;29;20036;-66
2022/01/18 04:51:46;;;;;;;6.68;3.03;;;20.70;50.50;;;;;;4914091;29;20031;-66
2022/01/18 04:54:12;;;;;;;8.73;3.33;;;20.80;50.70;;;;;;4915567;29;20032;-66
2022/01/18 04:59:09;;;;;;;8.27;3.40;;;20.80;50.60;;;;;;4914312;29;20027;-67
2022/01/18 05:01:36;;;;;;;8.05;3.17;;;20.80;50.50;;;;;;4915220;29;20032;-66
2022/01/18 05:04:02;;;;;;;6.43;3.10;;;20.80;50.50;;;;;;4933331;29;20063;-66
2022/01/18 05:06:28;;;;;;;8.98;3.35;;;20.80;50.80;;;;;;4919464;29;20032;-66
2022/01/18 05:08:55;;;;;;;9.55;3.55;;;20.80;50.70;;;;;;4919430;29;20032;-66
2022/01/18 05:11:23;;;;;;;9.82;3.55;;;20.80;50.60;;;;;;4918928;29;20492;-66
2022/01/18 05:21:35;;;;;;;7.85;3.35;;;20.80;50.70;;;;;;4918817;29;20028;-66
2022/01/18 05:24:02;;;;;;;8.38;3.38;;;20.80;50.70;;;;;;4919359;29;20428;-66
2022/01/18 05:26:29;;;;;;;8.10;3.50;;;20.70;50.70;;;;;;4918968;29;20036;-66
2022/01/18 05:28:57;;;;;;;9.05;3.42;;;20.70;50.70;;;;;;4919009;29;20032;-66
2022/01/18 05:31:24;;;;;;;9.10;3.92;;;20.70;50.60;;;;;;4918609;29;20032;-66
2022/01/18 05:33:50;;;;;;;8.52;3.05;;;20.70;50.60;;;;;;4918992;29;20028;-66
2022/01/18 05:36:15;;;;;;;6.72;3.03;;;20.70;50.70;;;;;;4917614;29;20099;-66
2022/01/18 05:38:41;;;;;;;7.57;3.13;;;20.70;50.70;;;;;;4918700;29;20032;-65
2022/01/18 05:41:09;;;;;;;8.77;3.10;;;20.70;50.60;;;;;;4933119;29;20064;-66
2022/01/18 05:43:35;;;;;;;7.82;3.20;;;20.70;50.70;;;;;;4917736;29;20040;-66
2022/01/18 05:46:01;;;;;;;10.30;3.58;;;20.70;50.50;;;;;;4918646;29;20500;-66
2022/01/18 05:48:27;;;;;;;10.63;3.83;;;20.70;50.50;;;;;;4917479;29;20501;-66
2022/01/18 05:50:59;;;;;;;9.18;3.28;;;20.70;50.60;;;;;;4933074;29;20028;-66
2022/01/18 05:53:29;;;;;;;6.55;2.95;;;20.80;50.70;;;;;;4918557;29;20036;-66
2022/01/18 05:55:55;;;;;;;8.65;3.60;;;20.80;50.70;;;;;;4918690;29;20056;-66
2022/01/18 05:58:20;;;;;;;8.38;3.78;;;20.70;50.50;;;;;;4917257;29;20030;-66
2022/01/18 06:00:52;;;;;;;8.98;3.83;;;20.70;50.60;;;;;;4932770;29;20036;-66
2022/01/18 06:03:27;;;;;;;8.95;3.42;;;20.80;50.50;;;;;;4917167;29;20504;-66
2022/01/18 06:08:39;;;;;;;8.40;3.22;;;20.80;50.70;;;;;;4918305;29;20029;-67
2022/01/18 06:11:05;;;;;;;8.95;3.63;;;20.70;50.60;;;;;;4917974;29;20051;-66
2022/01/18 06:13:30;;;;;;;8.88;3.40;;;20.70;50.50;;;;;;4917603;29;20477;-66
2022/01/18 06:15:56;;;;;;;10.13;3.38;;;20.80;50.60;;;;;;4918683;29;20036;-66
2022/01/18 06:18:22;;;;;;;8.77;3.30;;;20.70;50.50;;;;;;4918923;29;20025;-66
2022/01/18 06:20:48;;;;;;;9.00;3.92;;;20.70;50.50;;;;;;4919485;29;20035;-66
2022/01/18 06:23:14;;;;;;;8.85;3.40;;;20.80;50.60;;;;;;4917121;29;20090;-66
2022/01/18 06:25:40;;;;;;;8.90;3.53;;;20.70;50.60;;;;;;4918123;29;20273;-66
2022/01/18 06:28:06;;;;;;;9.25;3.45;;;20.70;50.60;;;;;;4900786;29;20035;-66
2022/01/18 06:30:32;;;;;;;6.25;3.10;;;20.70;50.60;;;;;;4917596;29;20039;-66
2022/01/18 06:32:58;;;;;;;7.50;2.90;;;20.80;50.50;;;;;;4917797;29;20111;-66
2022/01/18 06:35:24;;;;;;;9.30;3.80;;;20.70;50.50;;;;;;4917732;29;20032;-66
2022/01/18 06:37:50;;;;;;;10.57;3.88;;;20.70;50.40;;;;;;4917678;29;20032;-66
2022/01/18 06:40:16;;;;;;;8.48;3.10;;;20.80;50.60;;;;;;4917384;29;20057;-66
2022/01/18 06:42:45;;;;;;;8.75;3.53;;;20.80;50.60;;;;;;4916659;29;20401;-66
2022/01/18 06:45:15;;;;;;;7.93;3.35;;;20.70;50.60;;;;;;4916569;29;20481;-66
2022/01/18 06:47:41;;;;;;;9.93;3.42;;;20.70;50.60;;;;;;4917455;29;20103;-66
2022/01/18 06:50:10;;;;;;;7.75;3.05;;;20.70;50.50;;;;;;4917216;29;20032;-66
2022/01/18 06:52:36;;;;;;;6.97;3.17;;;20.70;50.60;;;;;;4917534;29;20040;-66
2022/01/18 06:55:03;;;;;;;8.40;3.50;;;20.70;50.60;;;;;;4916669;29;20412;-66
2022/01/18 06:57:29;;;;;;;7.70;3.08;;;20.70;50.40;;;;;;4917228;29;20378;-66
2022/01/18 06:59:55;;;;;;;9.23;3.58;;;20.70;50.50;;;;;;4917107;29;20112;-66
2022/01/18 07:02:20;;;;;;;10.02;3.45;;;20.70;50.50;;;;;;4916395;29;20485;-66
2022/01/18 07:04:46;;;;;;;9.05;3.17;;;20.70;50.60;;;;;;4917325;29;20036;-66
2022/01/18 07:07:12;;;;;;;7.75;3.47;;;20.70;50.50;;;;;;4917244;29;20028;-66
2022/01/18 07:09:37;;;;;;;8.20;3.67;;;20.70;50.60;;;;;;4916987;29;20028;-66
2022/01/18 07:12:09;;;;;;;8.52;3.22;;;20.70;50.50;;;;;;4900208;29;20036;-67
2022/01/18 07:14:35;;;;;;;7.65;3.15;;;20.70;50.60;;;;;;4915984;29;20477;-66
2022/01/18 07:17:02;;;;;;;9.05;3.38;;;20.70;50.60;;;;;;4915691;29;20499;-66
2022/01/18 07:19:27;;;;;;;10.38;3.28;;;20.70;50.40;;;;;;4916710;29;20063;-66
2022/01/18 07:21:53;;;;;;;7.82;3.70;;;20.70;50.50;;;;;;4916997;29;20059;-66
2022/01/18 07:24:36;;;;;;;8.40;3.53;;;20.70;50.50;;;;;;4915739;29;20115;-66
2022/01/18 07:27:27;;;;;;;10.40;3.72;;;20.70;50.40;;;;;;4917708;29;20593;-66
2022/01/18 07:29:53;;;;;;;8.80;3.25;;;20.70;50.50;;;;;;4940104;29;20051;-69
2022/01/18 07:32:20;;;;;;;8.98;3.42;;;20.70;50.50;;;;;;4935003;29;20557;-69
2022/01/18 07:34:52;;;;;;;8.27;3.53;;;20.70;50.60;;;;;;4935587;29;20027;-69
2022/01/18 07:37:19;;;;;;;8.73;3.97;;;20.70;50.50;;;;;;4932323;29;20517;-69
2022/01/18 07:39:45;;;;;;;7.93;3.65;;;20.70;50.50;;;;;;4915375;29;20457;-69
2022/01/18 07:42:10;;;;;;;7.65;3.33;;;20.70;50.50;;;;;;4917056;29;20118;-69
2022/01/18 07:44:36;;;;;;;9.38;3.75;;;20.70;50.60;;;;;;4915504;29;20036;-69
2022/01/18 07:47:02;;;;;;;9.95;3.63;;;20.80;50.60;;;;;;4916436;29;20548;-70
2022/01/18 07:49:27;;;;;;;8.70;3.33;;;20.80;50.50;;;;;;4916091;29;20043;-70
2022/01/18 07:51:53;;;;;;;9.32;3.60;;;20.80;50.50;;;;;;4931000;29;20024;-70
2022/01/18 07:54:19;;;;;;;7.63;3.28;;;20.70;50.40;;;;;;4899506;29;20417;-70
2022/01/18 07:56:45;;;;;;;9.55;4.15;;;20.70;50.60;;;;;;4915113;29;20071;-70
2022/01/18 07:59:11;;;;;;;7.28;3.33;;;20.70;50.40;;;;;;4916213;29;20031;-70
2022/01/18 08:01:37;;;;;;;8.38;3.50;;;20.70;50.40;;;;;;4915626;29;20028;-69
2022/01/18 08:04:03;;;;;;;9.93;3.60;;;20.70;50.50;;;;;;4916165;29;20040;-69
2022/01/18 08:06:29;;;;;;;7.28;3.13;;;20.70;50.60;;;;;;4916198;29;20024;-70
2022/01/18 08:08:55;;;;;;;9.55;3.55;;;20.70;50.50;;;;;;4914800;29;20127;-70
2022/01/18 08:11:21;;;;;;;6.20;3.20;;;20.70;50.40;;;;;;4914663;29;20047;-70
2022/01/18 08:13:49;;;;;;;7.78;3.30;;;20.70;50.40;;;;;;4916013;29;20075;-70
2022/01/18 08:18:55;;;;;;;8.68;3.80;;;20.70;50.50;;;;;;4915937;29;20032;-70
2022/01/18 08:21:21;;;;;;;7.07;3.22;;;20.70;50.40;;;;;;4915742;29;20405;-70
2022/01/18 08:23:47;;;;;;;8.05;3.70;;;20.70;50.60;;;;;;4930476;29;20560;-70
2022/01/18 08:26:13;;;;;;;8.55;3.58;;;20.70;50.60;;;;;;4914769;29;20032;-71
2022/01/18 08:28:39;;;;;;;8.15;3.65;;;20.70;50.50;;;;;;4914399;29;20396;-71
2022/01/18 08:31:05;;;;;;;7.55;3.00;;;20.70;50.50;;;;;;4914289;29;20036;-71
2022/01/18 08:33:32;;;;;;;8.40;3.72;;;20.70;50.50;;;;;;4915633;29;20035;-71
2022/01/18 08:36:00;;;;;;;7.57;3.00;;;20.70;50.40;;;;;;4914625;29;20389;-71
2022/01/18 08:38:30;;;;;;;10.02;3.53;;;20.70;50.50;;;;;;4913551;29;20032;-71
2022/01/18 08:40:56;;;;;;;7.75;3.40;;;20.70;50.50;;;;;;4915607;29;20032;-71
2022/01/18 08:43:23;;;;;;;8.27;3.40;;;20.70;50.60;;;;;;4915814;29;20028;-71
2022/01/18 08:45:48;;;;;;;8.50;3.20;;;20.70;50.50;;;;;;4915592;29;20036;-70
2022/01/18 08:48:14;;;;;;;10.02;3.97;;;20.80;50.60;;;;;;4915556;29;20071;-70
2022/01/18 08:50:40;;;;;;;9.30;3.53;;;20.80;50.50;;;;;;4915177;29;20032;-70
2022/01/18 08:53:06;;;;;;;7.15;3.40;;;20.70;50.50;;;;;;4915649;29;20028;-70
2022/01/18 08:55:34;;;;;;;7.97;3.10;;;20.70;50.60;;;;;;4914460;29;20039;-70
2022/01/18 08:58:01;;;;;;;8.82;3.35;;;20.70;50.50;;;;;;4914729;29;20036;-70
2022/01/18 09:00:27;;;;;;;7.72;3.20;;;20.70;50.50;;;;;;4914016;29;20028;-69
2022/01/18 09:02:52;;;;;;;9.10;3.47;;;20.70;50.50;;;;;;4930223;29;20028;-70
2022/01/18 09:05:22;;;;;;;7.15;3.28;;;20.70;50.50;;;;;;4931352;29;20027;-69
2022/01/18 09:07:48;;;;;;;10.70;3.83;;;20.80;50.50;;;;;;4915608;29;20396;-70
2022/01/18 09:10:14;;;;;;;8.93;3.58;;;20.70;50.30;;;;;;4914441;29;20039;-69
2022/01/18 09:12:40;;;;;;;8.15;3.63;;;20.70;50.30;;;;;;4914285;29;20497;-70
2022/01/18 09:15:08;;;;;;;9.55;3.17;;;20.80;50.60;;;;;;4914081;29;20074;-71
2022/01/18 09:17:35;;;;;;;7.57;2.90;;;20.70;50.30;;;;;;4915280;29;20036;-70
2022/01/18 09:20:06;;;;;;;7.18;3.50;;;20.70;50.40;;;;;;4913829;29;20040;-70
2022/01/18 09:22:35;;;;;;;7.85;3.70;;;20.80;50.30;;;;;;4915583;29;20033;-70
2022/01/18 09:25:06;;;;;;;7.03;3.10;;;20.70;50.20;;;;;;4915395;29;20485;-70
2022/01/18 09:27:32;;;;;;;8.20;3.78;;;20.70;50.40;;;;;;4914055;29;20453;-70
2022/01/18 09:29:58;;;;;;;7.18;3.58;;;20.70;50.30;;;;;;4914791;29;20024;-70
2022/01/18 09:32:23;;;;;;;8.27;3.30;;;20.70;50.40;;;;;;4913740;29;20032;-70
2022/01/18 09:34:50;;;;;;;8.07;3.47;;;20.70;50.40;;;;;;4914829;29;20477;-70
2022/01/18 09:37:16;;;;;;;7.30;3.40;;;20.70;50.40;;;;;;4914168;29;20036;-70
2022/01/18 09:39:42;;;;;;;6.97;3.25;;;20.70;50.60;;;;;;4914833;29;20481;-70
2022/01/18 09:42:09;;;;;;;7.03;3.17;;;20.70;50.60;;;;;;4915352;29;20032;-70
2022/01/18 09:44:35;;;;;;;8.18;3.70;;;20.70;50.60;;;;;;4915092;29;20472;-70
2022/01/18 09:47:02;;;;;;;8.25;3.50;;;20.70;50.60;;;;;;4913945;29;20112;-71
2022/01/18 09:49:28;;;;;;;7.47;3.42;;;20.70;50.40;;;;;;4916701;29;20087;-71
2022/01/18 09:51:54;;;;;;;8.18;3.28;;;20.80;50.40;;;;;;4918730;29;20485;-71
2022/01/18 09:54:20;;;;;;;7.45;3.28;;;20.70;50.60;;;;;;4919143;29;20028;-70
2022/01/18 09:56:45;;;;;;;7.85;3.05;;;20.70;50.50;;;;;;4917281;29;20092;-70
2022/01/18 09:59:11;;;;;;;6.63;3.20;;;20.70;50.60;;;;;;4918326;29;20035;-70
2022/01/18 10:01:37;;;;;;;8.82;3.67;;;20.70;50.40;;;;;;4917032;29;20032;-70
2022/01/18 10:04:17;;;;;;;9.65;3.88;;;20.70;50.40;;;;;;4933198;29;20099;-70
2022/01/18 10:06:49;;;;;;;8.10;3.33;;;20.80;50.60;;;;;;4918358;29;20132;-69
2022/01/18 10:09:17;;;;;;;9.77;3.50;;;20.70;50.30;;;;;;4918138;29;20043;-69
2022/01/18 10:12:01;;;;;;;8.45;3.08;;;20.70;50.50;;;;;;4916655;29;20036;-70
2022/01/18 10:14:28;;;;;;;9.27;3.60;;;20.70;50.20;;;;;;4917275;29;20024;-69
2022/01/18 10:16:53;;;;;;;7.60;3.10;;;20.70;50.50;;;;;;4917180;29;20068;-69
2022/01/18 10:19:31;;;;;;;8.48;3.60;;;20.70;50.50;;;;;;4917957;29;20044;-69
2022/01/18 10:22:31;;;;;;;7.05;3.03;;;20.70;50.40;;;;;;4932618;29;20028;-69
2022/01/18 10:25:12;;;;;;;8.45;3.72;;;20.80;50.60;;;;;;4916824;29;20036;-69
2022/01/18 10:27:38;;;;;;;7.63;3.50;;;20.80;50.50;;;;;;4932898;29;20032;-69
2022/01/18 10:30:10;;;;;;;7.57;3.55;;;20.80;50.40;;;;;;4932852;29;20617;-69
2022/01/18 10:32:41;;;;;;;6.93;3.47;;;20.80;50.50;;;;;;4918117;29;20111;-69
2022/01/18 10:35:09;;;;;;;7.22;3.22;;;20.80;50.50;;;;;;4917860;29;20041;-69
2022/01/18 10:37:40;;;;;;;9.60;3.85;;;20.80;50.50;;;;;;4917719;29;20031;-69
2022/01/18 10:40:18;;;;;;;7.95;3.40;;;20.80;50.30;;;;;;4917382;29;20504;-69
2022/01/18 10:42:50;;;;;;;7.38;3.47;;;20.80;50.40;;;;;;4917693;29;20040;-69
2022/01/18 10:45:33;;;;;;;9.23;3.58;;;20.70;50.50;;;;;;4916713;29;20043;-69
2022/01/18 10:48:11;;;;;;;7.75;3.53;;;20.80;50.50;;;;;;4932389;29;20035;-69
2022/01/18 10:50:39;;;;;;;6.90;3.28;;;20.80;50.50;;;;;;4917296;29;20028;-69
2022/01/18 10:53:22;;;;;;;7.78;3.22;;;20.80;50.50;;;;;;4916440;29;20035;-69
2022/01/18 10:56:14;;;;;;;7.75;3.58;;;20.80;50.50;;;;;;4917512;29;20035;-69
2022/01/18 10:58:49;;;;;;;6.25;3.28;;;20.80;50.50;;;;;;4916598;29;20020;-69
2022/01/18 11:01:19;;;;;;;7.88;3.50;;;20.80;50.40;;;;;;4914885;29;20048;-69
2022/01/18 11:04:17;;;;;;;6.72;3.20;;;20.80;50.50;;;;;;4916326;29;20044;-69
2022/01/18 11:07:00;;;;;;;7.25;3.40;;;20.80;50.60;;;;;;4917291;29;20060;-69
2022/01/18 11:09:26;;;;;;;8.35;3.30;;;20.80;50.50;;;;;;4915862;29;20556;-69
2022/01/18 11:11:52;;;;;;;8.57;3.78;;;20.80;50.60;;;;;;4916925;29;20040;-69
2022/01/18 11:14:21;;;;;;;8.88;3.40;;;20.80;50.60;;;;;;4916124;29;20028;-69
2022/01/18 11:16:49;;;;;;;7.78;3.47;;;20.80;50.50;;;;;;4917075;29;20063;-70
2022/01/18 11:19:39;;;;;;;7.88;3.33;;;20.80;50.50;;;;;;4931556;29;20104;-70
2022/01/18 11:22:10;;;;;;;6.97;3.22;;;20.80;50.60;;;;;;4917046;29;20040;-69
2022/01/18 11:24:41;;;;;;;7.07;3.30;;;20.70;50.50;;;;;;4917302;29;20607;-69
2022/01/18 11:27:11;;;;;;;7.70;3.10;;;20.70;50.60;;;;;;4915972;29;20079;-70
2022/01/18 11:29:38;;;;;;;6.43;3.20;;;20.70;50.60;;;;;;4915482;29;20032;-69
2022/01/18 11:32:05;;;;;;;8.00;3.38;;;20.80;50.60;;;;;;4916792;29;20079;-69
2022/01/18 11:34:55;;;;;;;6.43;3.33;;;20.80;50.60;;;;;;4916896;29;20056;-70
2022/01/18 11:37:45;;;;;;;9.23;3.33;;;20.80;50.60;;;;;;4916659;29;20036;-70
2022/01/18 11:40:14;;;;;;;6.43;3.10;;;20.70;50.60;;;;;;4901170;29;20036;-70
2022/01/18 11:42:55;;;;;;;6.88;3.22;;;20.70;50.60;;;;;;4917290;29;20055;-70
2022/01/18 11:45:24;;;;;;;7.72;3.45;;;20.80;50.50;;;;;;4931606;29;20508;-70
2022/01/18 11:48:13;;;;;;;6.55;3.08;;;20.80;50.60;;;;;;4915451;29;20040;-70
2022/01/18 11:50:44;;;;;;;7.93;3.35;;;20.80;50.60;;;;;;4916131;29;20119;-70
2022/01/18 11:53:38;;;;;;;7.22;3.42;;;20.80;50.60;;;;;;4916390;29;20512;-70
2022/01/18 11:56:05;;;;;;;8.75;3.60;;;20.80;50.50;;;;;;4916285;29;20276;-70
2022/01/18 11:58:30;;;;;;;7.47;3.47;;;20.80;50.50;;;;;;4916133;29;20512;-70
2022/01/18 12:01:05;;;;;;;7.53;3.40;;;20.80;50.50;;;;;;4916009;29;20036;-70
2022/01/18 12:03:41;;;;;;;6.60;2.92;;;20.80;50.60;;;;;;4899487;29;20052;-69
2022/01/18 12:06:08;;;;;;;5.53;3.03;;;20.80;50.60;;;;;;4916259;29;20040;-70
2022/01/18 12:08:42;;;;;;;7.50;3.75;;;20.80;50.60;;;;;;4916071;29;20035;-69
2022/01/18 12:11:18;;;;;;;7.80;3.60;;;20.80;50.60;;;;;;4914799;29;20410;-70
2022/01/18 12:13:47;;;;;;;8.00;3.33;;;20.80;50.60;;;;;;4916151;29;20080;-70
2022/01/18 12:16:22;;;;;;;6.43;3.30;;;20.70;50.60;;;;;;4916018;29;20512;-70
2022/01/18 12:18:54;;;;;;;7.50;3.28;;;20.70;50.60;;;;;;4914456;29;20556;-70
2022/01/18 12:21:24;;;;;;;6.25;3.03;;;20.80;50.70;;;;;;4915763;29;20079;-69
2022/01/18 12:23:50;;;;;;;6.75;3.20;;;20.80;50.70;;;;;;4916354;29;20032;-70
2022/01/18 12:34:26;;;;;;;5.10;2.90;;;20.70;50.70;;;;;;4915801;29;19954;-70
2022/01/18 12:37:08;;;;;;;7.13;3.22;;;20.80;50.70;;;;;;4915774;29;20032;-70
2022/01/18 12:45:06;;;;;;;10.40;4.10;;;20.70;50.60;;;;;;4915723;29;20489;-69
2022/01/18 12:47:35;;;;;;;9.88;4.55;;;20.80;50.50;;;;;;4930216;29;20032;-69
2022/01/18 12:50:02;;;;;;;8.55;3.80;;;20.70;50.40;;;;;;4915794;29;20115;-69
2022/01/18 12:52:48;;;;;;;9.40;4.10;;;20.70;51.00;;;;;;4933707;29;20031;-69
2022/01/18 12:55:35;;;;;;;9.63;3.80;;;20.70;50.70;;;;;;4931707;29;20506;-69
2022/01/18 12:58:09;;;;;;;11.55;3.95;;;20.70;50.70;;;;;;4934007;29;20130;-69
2022/01/18 13:00:37;;;;;;;10.40;4.10;;;20.80;50.90;;;;;;4932629;29;20627;-69
2022/01/18 13:03:04;;;;;;;10.98;3.40;;;20.70;50.90;;;;;;4917376;29;20028;-69
2022/01/18 13:05:40;;;;;;;8.18;3.90;;;20.80;51.30;;;;;;4934110;29;20028;-69
2022/01/18 13:08:08;;;;;;;10.30;3.33;;;20.80;51.20;;;;;;4934275;29;20031;-69
2022/01/18 13:10:40;;;;;;;8.77;3.20;;;20.80;51.20;;;;;;4932625;29;20031;-70
2022/01/18 13:13:08;;;;;;;9.93;4.07;;;20.80;51.30;;;;;;4917447;29;20119;-69
2022/01/18 13:15:50;;;;;;;16.52;4.10;;;20.80;51.20;;;;;;4917677;29;20035;-69
2022/01/18 13:26:33;;;;;;;8.90;3.75;;;20.80;51.10;;;;;;4918972;29;20091;-68
2022/01/18 13:29:17;;;;;;;10.27;3.83;;;20.80;51.00;;;;;;4916500;29;20044;-68
2022/01/18 13:31:45;;;;;;;11.80;3.42;;;20.80;51.20;;;;;;4918616;29;20032;-68
2022/01/18 13:34:14;;;;;;;8.80;3.60;;;20.80;51.20;;;;;;4918820;29;20024;-68
2022/01/18 13:36:51;;;;;;;10.90;4.30;;;20.80;51.30;;;;;;4917811;29;20489;-68
2022/01/18 13:39:31;;;;;;;10.05;3.95;;;20.80;51.40;;;;;;4918400;29;20549;-68
2022/01/18 13:41:59;;;;;;;10.05;3.90;;;20.80;51.20;;;;;;4933489;29;20110;-68
2022/01/18 13:44:25;;;;;;;19.42;8.07;;;20.80;51.60;;;;;;4918487;29;20079;-69
2022/01/18 13:46:52;;;;;;;37.00;22.23;;;20.70;48.90;;;;;;4918816;29;20036;-68
2022/01/18 13:49:22;;;;;;;36.22;19.02;;;20.50;44.40;;;;;;4918247;29;20454;-68
2022/01/18 13:52:03;;;;;;;35.38;15.18;;;20.30;44.90;;;;;;4918081;29;20214;-68
2022/01/18 13:54:52;;;;;;;34.92;14.55;;;20.30;44.20;;;;;;4916721;29;20032;-68
2022/01/18 13:57:19;;;;;;;27.15;14.82;;;20.40;46.20;;;;;;4918434;29;20032;-68
2022/01/18 13:59:46;;;;;;;28.77;13.75;;;20.40;45.60;;;;;;4900994;29;20131;-68
2022/01/18 14:02:16;;;;;;;25.70;13.43;;;20.40;45.90;;;;;;4918481;29;20110;-68
2022/01/18 14:04:42;;;;;;;25.75;13.05;;;20.50;45.90;;;;;;4901441;29;20060;-67
2022/01/18 14:07:09;;;;;;;22.58;12.75;;;20.50;46.00;;;;;;4918127;29;20036;-68
2022/01/18 14:09:36;;;;;;;21.73;12.10;;;20.50;46.40;;;;;;4916503;29;20060;-68
2022/01/18 14:12:03;;;;;;;26.65;12.50;;;20.50;46.80;;;;;;4916867;29;20039;-68
2022/01/18 14:14:33;;;;;;;27.83;12.45;;;20.50;46.70;;;;;;4916850;29;20039;-67
2022/01/18 14:17:04;;;;;;;23.35;12.55;;;20.60;47.10;;;;;;4917698;29;20043;-68
2022/01/18 14:19:40;;;;;;;22.23;12.25;;;20.60;47.30;;;;;;4917584;29;20036;-68
2022/01/18 14:22:23;;;;;;;23.38;11.63;;;20.60;47.30;;;;;;4929932;29;20496;-68
2022/01/18 14:24:58;;;;;;;23.23;12.10;;;20.60;47.40;;;;;;4936983;29;20115;-68
2022/01/18 14:27:31;;;;;;;23.67;11.65;;;20.60;47.40;;;;;;4936869;29;20028;-68